Scotland, Texas
Current Conditions -  °F | °C
As of 6:55 PM on Tuesday 21 Oct 2014 (Local Time) from KCWC Reporting Station
Clear Clear  
Wind Chill: 75°   Ceiling: Unl
Heat Index: 75°   Visibility: 10mi
Dew Point: 52°   Wind: 5mph
Humidity: 44%   Direction: 130°SE
Pressure: 30.02"   Gusts: NA
Location:  33.66°N, 98.47°W
Report Text: KCWC 212355Z AUTO 13004KT 10SM CLR 24/11 A3002 RMK AO2 T02400112 10284 20240
Loading
Personal Weather Stations






























Interactive Weather Map
Tropical Storm Tracking
New forecast layout! Learn more

10-Day Weather Forecast

Advertisements
Track Severe Weather on mobile